Port Henry, NY (12974)

3:43 AM EST on November 23, 2014 (GMT -0500)
Moriah, NY 12960 | Change Station
CLOSE
Current Station
Personal Weather Station
Location: Moriah, NY
Elevation: 895 ft
Nearby Weather Stations

Elev 895 ft 44.05 °N, 73.51 °W | Updated 3 seconds ago

Overcast
Overcast
33.3 °F
Feels Like 33 °F
N
2.0
Wind Variable Wind from SE
Gusts 3.0 mph

Today
High -- | Low -- °F
--% Chance of Precip.
Yesterday
High -- | Low -- °F
Precip. -- in
6:59 AM 4:21 PM
New Moon, 1% visible
Pressure 30.01 in
Visibility 10.0 miles
Clouds Overcast 2400 ft
Windchill 33 °F
Dew Point 31 °F
Humidity 90%
Rainfall 0.00 in
Snow Depth Not available.
UV 0.0 out of 12
Pollen .10 out of 12
Air Quality Not available.
Flu Activity Not available.
METAR K6B0 230835Z AUTO 17006KT 10SM OVC024 04/04 A3001 RMK AO2 T00430035

More Conditions Fewer Conditions

Pressure 30.01 in
Visibility 10.0 miles
Clouds Overcast 2400 ft
Windchill 33 °F
Dew Point 31 °F
Humidity 90%
Rainfall 0.00 in
Snow Depth Not available.
UV 0.0 out of 12
Pollen .10 out of 12
Air Quality Not available.
Flu Activity Not available.
METAR K6B0 230835Z AUTO 17006KT 10SM OVC024 04/04 A3001 RMK AO2 T00430035

More Conditions Fewer Conditions

10-Day Weather Forecast

Almanac

Astronomy

Nov. 23, 2014 Rise Set
Actual Time
Civil Twilight
Nautical Twilight
Astronomical Twilight
Moon
Length of Visible Light
Length of Day
Tomorrow will be .
, % of the Moon is Illuminated

Today's Extremes

State Highs State Lows

Community

WunderPhotos

Upload Photos

1,773,024 photos uploaded!

WunderBlogs® & News

Nearby

Air Quality

  Air Quality AQ Index Pollutant
Not available.

Snow Depth

Station Depth Elevation

Earthquake Activity

City Distance Mag. Time & Date
Minimum magnitude displayed is 2.5.

Coastal Water Temperatures

Place Temperature

Nearby Weather Stations